Forestburg, Canada
Current Conditions -  °F | °C
As of 6:20 PM on Sunday 21 Dec 2014 (Local Time) from CYEG Reporting Station
Light Snow Light Snow  
Wind Chill: 25°   Ceiling: 1400
Heat Index: 25°   Visibility: 6mi
Dew Point: 23°   Wind: 3mph
Humidity: 93%   Direction: 260°W
Pressure: 29.53"   Gusts: NA
Location:  52.58°N, 112.07°W
Report Text: CYEG 220120Z 26003KT 6SM -SN OVC014 M04/M05 A2953 RMK SC8 SLP038
Loading
Personal Weather Stations






























Interactive Weather Map New forecast layout! Learn more

10-Day Weather Forecast

Advertisements
Track Severe Weather on mobile